createdAt,value
2022-12-24T00:02:43.922Z,99016.09
2022-12-24T00:05:32.692Z,99022.00
2022-12-24T00:08:21.503Z,99024.66
2022-12-24T00:11:11.750Z,99031.75
2022-12-24T00:14:00.477Z,99045.44
2022-12-24T00:16:49.145Z,99051.72
2022-12-24T00:19:37.817Z,99056.09
2022-12-24T00:22:26.432Z,99057.81
2022-12-24T00:25:15.037Z,99052.34
2022-12-24T00:28:05.242Z,99051.91
2022-12-24T00:30:53.908Z,99076.25
2022-12-24T00:33:42.529Z,99057.66
2022-12-24T00:36:31.163Z,99055.34
2022-12-24T00:39:20.336Z,99043.84
2022-12-24T00:42:09.063Z,99048.84
2022-12-24T00:44:59.097Z,99042.81
2022-12-24T00:47:47.750Z,99058.56
2022-12-24T00:50:36.450Z,99067.38
2022-12-24T00:53:26.293Z,99073.19
2022-12-24T00:56:14.923Z,99073.50
2022-12-24T00:59:03.697Z,99077.06
2022-12-24T01:01:53.836Z,99075.00
2022-12-24T01:05:00.406Z,99082.28
2022-12-24T01:07:49.529Z,99093.06
2022-12-24T01:10:38.188Z,99092.03
2022-12-24T01:13:27.246Z,99095.13
2022-12-24T01:16:18.280Z,99104.19
2022-12-24T01:19:08.486Z,99113.22
2022-12-24T01:21:57.740Z,99110.34
2022-12-24T01:24:46.573Z,99114.84
2022-12-24T01:27:35.267Z,99128.78
2022-12-24T01:30:23.996Z,99126.72
2022-12-24T01:33:12.680Z,99118.09
2022-12-24T01:36:05.610Z,99124.25
2022-12-24T01:38:54.190Z,99124.34
2022-12-24T01:42:00.391Z,99134.56
2022-12-24T01:44:50.723Z,99142.50
2022-12-24T01:47:39.379Z,99142.44
2022-12-24T01:50:28.224Z,99140.81
2022-12-24T01:53:18.341Z,99153.09
2022-12-24T01:56:08.591Z,99156.09
2022-12-24T01:58:59.992Z,99163.31
2022-12-24T02:01:48.976Z,99162.84
2022-12-24T02:04:39.954Z,99171.88
2022-12-24T02:07:28.781Z,99166.56
2022-12-24T02:10:19.239Z,99167.00
2022-12-24T02:13:10.142Z,99165.06
2022-12-24T02:16:08.840Z,99162.47
2022-12-24T02:19:01.947Z,99169.53
2022-12-24T02:21:56.032Z,99176.06
2022-12-24T02:25:20.847Z,99180.81
2022-12-24T02:28:18.632Z,99184.06
2022-12-24T02:31:12.424Z,99179.84
2022-12-24T02:34:05.985Z,99198.72
2022-12-24T02:36:57.751Z,99205.66
2022-12-24T02:39:49.070Z,99208.16
2022-12-24T02:42:40.027Z,99209.81
2022-12-24T02:45:31.173Z,99223.41
2022-12-24T02:48:22.810Z,99224.25
2022-12-24T02:51:12.758Z,99228.94
2022-12-24T02:54:01.421Z,99233.03
2022-12-24T02:57:06.396Z,99227.88
2022-12-24T03:00:05.473Z,99240.66
2022-12-24T03:03:09.719Z,99243.94
2022-12-24T03:06:03.536Z,99246.81
2022-12-24T03:08:56.744Z,99257.84
2022-12-24T03:11:50.248Z,99264.63
2022-12-24T03:14:40.082Z,99274.25
2022-12-24T03:17:28.960Z,99276.72
2022-12-24T03:20:20.952Z,99274.25
2022-12-24T03:23:12.809Z,99270.94
2022-12-24T03:26:02.359Z,99273.59
2022-12-24T03:28:51.507Z,99268.13
2022-12-24T03:31:45.157Z,99269.31
2022-12-24T03:34:34.014Z,99263.97
2022-12-24T03:37:22.816Z,99273.41
2022-12-24T03:40:13.696Z,99277.91
2022-12-24T03:43:02.502Z,99284.72
2022-12-24T03:45:51.244Z,99280.44
2022-12-24T03:48:39.882Z,99279.25
2022-12-24T03:51:29.484Z,99279.25
2022-12-24T03:54:18.162Z,99290.13
2022-12-24T03:57:08.347Z,99294.34
2022-12-24T03:59:57.002Z,99299.28
2022-12-24T04:02:45.794Z,99293.59
2022-12-24T04:05:34.721Z,99296.28
2022-12-24T04:08:23.816Z,99302.84
2022-12-24T04:11:13.910Z,99309.75
2022-12-24T04:14:04.012Z,99314.94
2022-12-24T04:16:52.717Z,99318.63
2022-12-24T04:19:41.404Z,99316.97
2022-12-24T04:22:30.066Z,99329.72
2022-12-24T04:25:18.804Z,99322.09
2022-12-24T04:28:07.445Z,99321.44
2022-12-24T04:31:01.007Z,99326.84
2022-12-24T04:36:38.037Z,99325.25
2022-12-24T04:39:26.671Z,99338.00
2022-12-24T04:42:15.299Z,99344.97
2022-12-24T04:45:03.952Z,99338.66
2022-12-24T04:47:54.040Z,99345.00
2022-12-24T04:50:42.684Z,99364.91
2022-12-24T04:53:31.502Z,99360.16
2022-12-24T04:56:22.167Z,99365.06
2022-12-24T04:59:10.853Z,99361.97
2022-12-24T05:01:59.695Z,99376.53
2022-12-24T05:04:49.744Z,99386.72
2022-12-24T05:07:38.689Z,99391.59
2022-12-24T05:10:27.249Z,99395.09
2022-12-24T05:13:15.906Z,99401.03
2022-12-24T05:16:04.575Z,99407.78
2022-12-24T05:18:53.536Z,99410.00
2022-12-24T05:21:43.566Z,99422.47
2022-12-24T05:24:49.814Z,99425.56
2022-12-24T05:27:38.538Z,99436.66
2022-12-24T05:30:27.155Z,99429.31
2022-12-24T05:33:16.009Z,99432.38
2022-12-24T05:36:04.736Z,99431.94
2022-12-24T05:38:54.760Z,99438.75
2022-12-24T05:41:43.530Z,99443.06
2022-12-24T05:44:32.213Z,99445.31
2022-12-24T05:47:21.105Z,99450.25
2022-12-24T05:50:11.285Z,99441.06
2022-12-24T05:52:59.985Z,99453.94
2022-12-24T05:55:50.174Z,99453.19
2022-12-24T05:58:39.258Z,99454.63
2022-12-24T06:01:28.422Z,99458.91
2022-12-24T06:04:18.574Z,99467.75
2022-12-24T06:07:10.395Z,99463.25
2022-12-24T06:09:59.089Z,99472.88
2022-12-24T06:12:49.146Z,99486.00
2022-12-24T06:15:37.934Z,99501.41
2022-12-24T06:18:26.890Z,99515.91
2022-12-24T06:21:15.639Z,99515.13
2022-12-24T06:24:04.242Z,99509.34
2022-12-24T06:26:52.821Z,99520.44
2022-12-24T06:29:42.711Z,99523.75
2022-12-24T06:32:31.418Z,99533.19
2022-12-24T06:35:21.112Z,99541.53
2022-12-24T06:38:09.803Z,99541.81
2022-12-24T06:40:58.655Z,99538.53
2022-12-24T06:43:48.021Z,99546.69
2022-12-24T06:46:38.234Z,99540.56
2022-12-24T06:49:26.972Z,99547.13
2022-12-24T06:52:16.352Z,99547.91
2022-12-24T06:55:05.192Z,99557.75
2022-12-24T06:57:53.947Z,99559.81
2022-12-24T07:00:42.632Z,99562.69
2022-12-24T07:03:33.349Z,99573.34
2022-12-24T07:06:26.084Z,99574.38
2022-12-24T07:09:15.501Z,99585.22
2022-12-24T07:12:05.968Z,99578.84
2022-12-24T07:14:54.558Z,99592.59
2022-12-24T07:17:43.531Z,99582.38
2022-12-24T07:20:33.655Z,99602.22
2022-12-24T07:23:22.421Z,99602.44
2022-12-24T07:26:12.679Z,99611.06
2022-12-24T07:29:01.331Z,99606.97
2022-12-24T07:31:50.187Z,99614.34
2022-12-24T07:34:39.759Z,99603.25
2022-12-24T07:37:29.794Z,99627.06
2022-12-24T07:40:21.363Z,99628.31
2022-12-24T07:43:10.053Z,99633.84
2022-12-24T07:45:59.154Z,99642.22
2022-12-24T07:48:47.900Z,99646.72
2022-12-24T07:51:36.593Z,99653.28
2022-12-24T07:54:26.766Z,99659.81
2022-12-24T07:57:17.558Z,99643.31
2022-12-24T08:00:07.516Z,99663.59
2022-12-24T08:02:56.314Z,99654.59
2022-12-24T08:05:45.019Z,99659.91
2022-12-24T08:08:33.593Z,99672.19
2022-12-24T08:11:23.711Z,99677.09
2022-12-24T08:14:12.355Z,99688.97
2022-12-24T08:17:01.116Z,99684.28
2022-12-24T08:19:49.792Z,99694.94
2022-12-24T08:22:38.515Z,99697.19
2022-12-24T08:25:27.189Z,99697.00
2022-12-24T08:28:19.143Z,99704.16
2022-12-24T08:31:08.418Z,99709.03
2022-12-24T08:33:57.239Z,99720.31
2022-12-24T08:36:45.965Z,99722.59
2022-12-24T08:39:34.710Z,99733.66
2022-12-24T08:42:23.546Z,99732.22
2022-12-24T08:45:14.014Z,99741.84
2022-12-24T08:48:02.711Z,99747.56
2022-12-24T08:50:51.345Z,99759.88
2022-12-24T08:53:40.080Z,99750.47
2022-12-24T08:56:28.734Z,99763.16
2022-12-24T08:59:17.465Z,99770.94
2022-12-24T09:02:07.796Z,99774.59
2022-12-24T09:04:56.663Z,99773.81
2022-12-24T09:07:45.548Z,99787.31
2022-12-24T09:10:34.223Z,99778.28
2022-12-24T09:13:22.865Z,99784.03
2022-12-24T09:16:14.013Z,99784.88
2022-12-24T09:19:04.195Z,99787.91
2022-12-24T09:21:52.981Z,99787.72
2022-12-24T09:24:41.712Z,99794.31
2022-12-24T09:27:32.002Z,99796.38
2022-12-24T09:30:20.944Z,99805.38
2022-12-24T09:33:09.630Z,99811.09
2022-12-24T09:35:59.740Z,99811.50
2022-12-24T09:38:48.776Z,99825.00
2022-12-24T09:41:47.623Z,99822.94
2022-12-24T09:44:40.701Z,99829.09
2022-12-24T09:47:31.638Z,99829.88
2022-12-24T09:50:32.539Z,99832.34
2022-12-24T09:53:26.612Z,99834.16
2022-12-24T09:56:18.938Z,99839.69
2022-12-24T09:59:09.816Z,99845.81
2022-12-24T10:01:58.602Z,99862.19
2022-12-24T10:04:48.599Z,99854.44
2022-12-24T10:07:44.108Z,99861.38
2022-12-24T10:10:39.714Z,99867.13
2022-12-24T10:13:39.581Z,99866.13
2022-12-24T10:16:33.552Z,99858.34
2022-12-24T10:19:26.311Z,99878.84
2022-12-24T10:22:27.528Z,99885.16
2022-12-24T10:25:20.109Z,99886.72
2022-12-24T10:28:20.821Z,99884.66
2022-12-24T10:31:10.063Z,99901.00
2022-12-24T10:34:02.152Z,99894.66
2022-12-24T10:36:50.917Z,99890.56
2022-12-24T10:39:39.587Z,99885.53
2022-12-24T10:42:35.727Z,99888.88
2022-12-24T10:45:27.355Z,99889.69
2022-12-24T10:48:24.568Z,99889.25
2022-12-24T10:51:16.118Z,99897.84
2022-12-24T10:54:10.390Z,99904.41
2022-12-24T10:57:00.884Z,99898.91
2022-12-24T10:59:53.037Z,99907.72
2022-12-24T11:02:43.330Z,99901.59
2022-12-24T11:05:33.868Z,99914.63
2022-12-24T11:08:22.660Z,99915.84
2022-12-24T11:11:13.524Z,99915.03
2022-12-24T11:14:02.082Z,99917.50
2022-12-24T11:16:53.663Z,99912.16
2022-12-24T11:19:49.200Z,99919.34
2022-12-24T11:22:38.005Z,99935.00
2022-12-24T11:25:29.356Z,99938.81
2022-12-24T11:28:23.179Z,99934.91
2022-12-24T11:31:21.521Z,99925.88
2022-12-24T11:34:24.532Z,99938.00
2022-12-24T11:37:18.650Z,99947.03
2022-12-24T11:40:10.495Z,99956.06
2022-12-24T11:43:01.423Z,99949.91
2022-12-24T11:45:51.955Z,99958.31
2022-12-24T11:48:40.629Z,99956.06
2022-12-24T11:51:29.381Z,99947.69
2022-12-24T11:54:24.723Z,99961.66
2022-12-24T11:57:25.146Z,99972.94
2022-12-24T12:00:14.625Z,99962.28
2022-12-24T12:03:04.204Z,99969.06
2022-12-24T12:05:53.864Z,99973.41
2022-12-24T12:08:42.851Z,99979.25
2022-12-24T12:11:34.272Z,99973.50
2022-12-24T12:14:25.416Z,99979.88
2022-12-24T12:17:21.693Z,99973.44
2022-12-24T12:20:14.198Z,99983.31
2022-12-24T12:23:05.798Z,99988.66
2022-12-24T12:25:57.178Z,99987.63
2022-12-24T12:28:49.575Z,99990.31
2022-12-24T12:31:42.086Z,99992.81
2022-12-24T12:34:34.215Z,99987.47
2022-12-24T12:37:26.677Z,99986.25
2022-12-24T12:40:16.619Z,100002.19
2022-12-24T12:43:14.593Z,99991.38
2022-12-24T12:46:09.872Z,99998.25
2022-12-24T12:49:10.325Z,99987.41
2022-12-24T12:52:03.792Z,99996.00
2022-12-24T12:55:05.914Z,99996.41
2022-12-24T12:57:58.052Z,99990.69
2022-12-24T13:00:49.270Z,99994.81
2022-12-24T13:04:33.633Z,99994.81
2022-12-24T13:08:00.979Z,99989.91
2022-12-24T13:11:02.971Z,99993.66
2022-12-24T13:14:08.922Z,100001.03
2022-12-24T13:17:35.642Z,100006.56
2022-12-24T13:20:29.653Z,100003.16
2022-12-24T13:23:20.933Z,100002.72
2022-12-24T13:26:13.328Z,99994.88
2022-12-24T13:29:32.671Z,100003.34
2022-12-24T13:32:49.583Z,100005.19
2022-12-24T13:35:41.070Z,100006.44
2022-12-24T13:38:43.369Z,100008.91
2022-12-24T13:41:58.979Z,100011.78
2022-12-24T13:44:47.641Z,100010.94
2022-12-24T13:47:36.301Z,100018.75
2022-12-24T13:50:30.051Z,100011.00
2022-12-24T13:53:28.681Z,100020.38
2022-12-24T13:56:24.316Z,100027.19
2022-12-24T13:59:21.900Z,100025.31
2022-12-24T14:02:20.068Z,100022.66
2022-12-24T14:05:21.418Z,100022.44
2022-12-24T14:08:12.517Z,100023.84
2022-12-24T14:11:10.074Z,100027.78
2022-12-24T14:14:28.710Z,100027.53
2022-12-24T14:17:23.999Z,100041.31
2022-12-24T14:20:12.740Z,100038.66
2022-12-24T14:23:01.473Z,100045.63
2022-12-24T14:25:50.783Z,100052.41
2022-12-24T14:28:44.790Z,100062.25
2022-12-24T14:31:33.532Z,100060.59
2022-12-24T14:34:22.649Z,100057.75
2022-12-24T14:37:12.508Z,100065.56
2022-12-24T14:40:01.549Z,100074.59
2022-12-24T14:42:58.108Z,100077.44
2022-12-24T14:46:01.450Z,100079.94
2022-12-24T14:48:53.963Z,100085.03
2022-12-24T14:51:46.047Z,100080.75
2022-12-24T14:54:39.938Z,100091.81
2022-12-24T14:57:29.279Z,100096.75
2022-12-24T15:00:21.513Z,100103.09
2022-12-24T15:03:15.353Z,100110.69
2022-12-24T15:06:06.514Z,100108.84
2022-12-24T15:08:55.405Z,100107.22
2022-12-24T15:11:46.017Z,100108.88
2022-12-24T15:14:44.336Z,100117.31
2022-12-24T15:17:32.971Z,100123.03
2022-12-24T15:20:25.990Z,100129.19
2022-12-24T15:23:22.537Z,100128.38
2022-12-24T15:26:28.149Z,100134.53
2022-12-24T15:29:23.633Z,100133.50
2022-12-24T15:32:14.720Z,100136.59
2022-12-24T15:35:03.499Z,100142.75
2022-12-24T15:37:53.572Z,100147.28
2022-12-24T15:40:42.767Z,100147.28
2022-12-24T15:43:32.214Z,100146.25
2022-12-24T15:46:22.436Z,100140.66
2022-12-24T15:49:17.030Z,100152.19
2022-12-24T15:52:07.428Z,100158.75
2022-12-24T15:54:58.559Z,100156.28
2022-12-24T15:57:47.350Z,100152.81
2022-12-24T16:00:35.958Z,100167.78
2022-12-24T16:03:24.685Z,100198.19
2022-12-24T16:06:16.548Z,100199.84
2022-12-24T16:09:49.045Z,100194.78
2022-12-24T16:12:39.059Z,100194.16
2022-12-24T16:15:27.881Z,100200.25
2022-12-24T16:18:19.230Z,100199.50
2022-12-24T16:21:08.737Z,100203.19
2022-12-24T16:23:59.005Z,100210.19
2022-12-24T16:26:48.039Z,100198.19
2022-12-24T16:29:38.027Z,100199.09
2022-12-24T16:32:32.624Z,100204.84
2022-12-24T16:35:27.182Z,100208.53
2022-12-24T16:38:16.630Z,100228.19
2022-12-24T16:41:05.440Z,100228.19
2022-12-24T16:43:53.117Z,100227.22
2022-12-24T16:46:43.248Z,100237.69
2022-12-24T16:49:31.936Z,100250.78
2022-12-24T16:52:23.157Z,100240.09
2022-12-24T16:55:14.529Z,100250.84
2022-12-24T16:58:03.178Z,100246.31
2022-12-24T17:00:54.175Z,100243.25
2022-12-24T17:03:44.374Z,100246.75
2022-12-24T17:06:33.044Z,100251.66
2022-12-24T17:09:22.061Z,100249.94
2022-12-24T17:12:11.283Z,100258.16
2022-12-24T17:14:59.892Z,100270.06
2022-12-24T17:17:48.511Z,100273.00
2022-12-24T17:20:38.527Z,100275.91
2022-12-24T17:23:27.312Z,100271.78
2022-12-24T17:26:16.665Z,100281.78
2022-12-24T17:29:05.647Z,100279.91
2022-12-24T17:31:54.304Z,100260.72
2022-12-24T17:34:43.018Z,100266.25
2022-12-24T17:37:33.039Z,100263.16
2022-12-24T17:40:21.814Z,100271.41
2022-12-24T17:43:10.829Z,100284.38
2022-12-24T17:45:59.518Z,100283.56
2022-12-24T17:48:48.282Z,100279.06
2022-12-24T17:51:43.178Z,100278.44
2022-12-24T17:54:35.161Z,100271.00
2022-12-24T17:57:23.811Z,100280.47
2022-12-24T18:00:13.725Z,100283.78
2022-12-24T18:03:02.444Z,100290.16
2022-12-24T18:05:51.976Z,100308.88
2022-12-24T18:08:41.106Z,100305.78
2022-12-24T18:11:32.890Z,100312.50
2022-12-24T18:14:21.858Z,100313.19
2022-12-24T18:17:10.488Z,100313.38
2022-12-24T18:19:59.199Z,100310.91
2022-12-24T18:22:48.225Z,100305.97
2022-12-24T18:25:36.802Z,100313.75
2022-12-24T18:28:29.993Z,100320.34
2022-12-24T18:31:19.873Z,100317.06
2022-12-24T18:34:10.366Z,100322.41
2022-12-24T18:36:59.112Z,100326.53
2022-12-24T18:39:47.798Z,100326.94
2022-12-24T18:42:36.631Z,100328.59
2022-12-24T18:45:26.586Z,100332.91
2022-12-24T18:48:15.214Z,100328.13
2022-12-24T18:51:04.104Z,100326.91
2022-12-24T18:53:53.003Z,100331.88
2022-12-24T18:56:41.704Z,100335.19
2022-12-24T18:59:30.418Z,100337.22
2022-12-24T19:02:20.514Z,100337.22
2022-12-24T19:05:09.679Z,100336.81
2022-12-24T19:07:58.958Z,100332.31
2022-12-24T19:10:47.674Z,100333.88
2022-12-24T19:13:36.439Z,100344.41
2022-12-24T19:16:28.315Z,100348.72
2022-12-24T19:19:24.233Z,100350.53
2022-12-24T19:22:12.834Z,100355.66
2022-12-24T19:25:02.226Z,100363.53
2022-12-24T19:27:50.954Z,100357.00
2022-12-24T19:30:40.811Z,100359.47
2022-12-24T19:33:29.494Z,100370.59
2022-12-24T19:36:20.701Z,100360.72
2022-12-24T19:39:09.426Z,100366.84
2022-12-24T19:41:58.209Z,100375.13
2022-12-24T19:44:46.881Z,100387.84
2022-12-24T19:47:35.443Z,100387.47
2022-12-24T19:50:24.497Z,100405.16
2022-12-24T19:53:14.471Z,100385.41
2022-12-24T19:56:03.513Z,100396.09
2022-12-24T19:58:52.199Z,100387.47
2022-12-24T20:01:41.001Z,100391.78
2022-12-24T20:04:29.708Z,100391.97
2022-12-24T20:07:18.287Z,100403.88
2022-12-24T20:10:09.741Z,100403.50
2022-12-24T20:13:05.558Z,100406.78
2022-12-24T20:15:55.672Z,100419.88
2022-12-24T20:18:44.475Z,100416.03
2022-12-24T20:21:33.432Z,100432.19
2022-12-24T20:24:22.323Z,100426.13
2022-12-24T20:27:12.465Z,100423.50
2022-12-24T20:30:01.081Z,100420.06
2022-12-24T20:32:49.944Z,100416.53
2022-12-24T20:35:38.936Z,100420.66
2022-12-24T20:38:27.569Z,100424.59
2022-12-24T20:41:17.803Z,100424.41
2022-12-24T20:44:07.945Z,100421.38
2022-12-24T20:46:56.611Z,100430.97
2022-12-24T20:49:45.245Z,100429.72
2022-12-24T20:52:33.864Z,100426.22
2022-12-24T20:55:22.831Z,100416.56
2022-12-24T20:58:13.648Z,100426.09
2022-12-24T21:01:09.903Z,100424.88
2022-12-24T21:04:00.250Z,100422.78
2022-12-24T21:06:48.857Z,100426.47
2022-12-24T21:09:37.625Z,100423.97
2022-12-24T21:12:43.848Z,100423.13
2022-12-24T21:15:35.828Z,100435.09
2022-12-24T21:18:25.948Z,100428.16
2022-12-24T21:21:14.560Z,100429.81
2022-12-24T21:24:03.252Z,100431.06
2022-12-24T21:26:51.924Z,100433.31
2022-12-24T21:29:40.599Z,100427.34
2022-12-24T21:32:29.232Z,100440.34
2022-12-24T21:35:19.484Z,100428.81
2022-12-24T21:38:08.104Z,100431.91
2022-12-24T21:41:01.428Z,100438.47
2022-12-24T21:43:50.003Z,100446.06
2022-12-24T21:46:38.676Z,100441.72
2022-12-24T21:49:44.907Z,100461.03
2022-12-24T21:52:35.037Z,100463.38
2022-12-24T21:55:25.694Z,100464.81
2022-12-24T21:58:14.370Z,100463.53
2022-12-24T22:01:08.356Z,100454.28
2022-12-24T22:03:58.090Z,100470.53
2022-12-24T22:07:05.531Z,100474.69
2022-12-24T22:10:13.436Z,100482.09
2022-12-24T22:13:06.061Z,100481.63
2022-12-24T22:15:55.434Z,100474.91
2022-12-24T22:18:44.149Z,100471.59
2022-12-24T22:21:32.764Z,100471.97
2022-12-24T22:24:21.672Z,100482.66
2022-12-24T22:27:11.682Z,100497.84
2022-12-24T22:30:00.303Z,100502.16
2022-12-24T22:32:49.117Z,100501.19
2022-12-24T22:35:39.329Z,100486.34
2022-12-24T22:38:28.331Z,100491.66
2022-12-24T22:41:17.238Z,100498.25
2022-12-24T22:44:07.390Z,100493.53
2022-12-24T22:46:56.017Z,100513.47
2022-12-24T22:49:44.823Z,100523.94
2022-12-24T22:52:34.256Z,100515.94
2022-12-24T22:55:23.118Z,100515.09
2022-12-24T22:58:11.854Z,100521.72
2022-12-24T23:01:02.519Z,100527.00
2022-12-24T23:03:51.427Z,100538.50
2022-12-24T23:06:40.782Z,100541.63
2022-12-24T23:09:29.506Z,100541.75
2022-12-24T23:12:38.622Z,100546.28
2022-12-24T23:15:26.347Z,100548.38
2022-12-24T23:18:16.878Z,100547.94
2022-12-24T23:21:07.509Z,100550.78
2022-12-24T23:23:57.950Z,100556.31
2022-12-24T23:26:46.594Z,100559.22
2022-12-24T23:29:35.618Z,100560.00
2022-12-24T23:32:24.244Z,100546.16
2022-12-24T23:35:14.338Z,100554.28
2022-12-24T23:38:02.955Z,100552.41
2022-12-24T23:40:51.590Z,100550.88
2022-12-24T23:43:40.528Z,100555.38
2022-12-24T23:46:30.219Z,100567.03
2022-12-24T23:49:19.012Z,100577.91
2022-12-24T23:52:09.614Z,100585.63
2022-12-24T23:54:58.224Z,100574.16
2022-12-24T23:57:46.920Z,100575.81
